createdAt,value
2023-05-10T00:00:22.266Z,231.23
2023-05-10T00:01:22.324Z,229.55
2023-05-10T00:02:22.415Z,232.55
2023-05-10T00:03:22.381Z,231.19
2023-05-10T00:04:22.436Z,231.13
2023-05-10T00:05:22.383Z,229.90
2023-05-10T00:06:22.414Z,230.08
2023-05-10T00:07:22.425Z,230.83
2023-05-10T00:08:22.469Z,231.72
2023-05-10T00:09:22.467Z,231.40
2023-05-10T00:10:22.472Z,233.18
2023-05-10T00:11:23.269Z,233.45
2023-05-10T00:12:22.527Z,232.70
2023-05-10T00:13:22.601Z,232.55
2023-05-10T00:14:22.566Z,235.01
2023-05-10T00:15:22.579Z,235.80
2023-05-10T00:16:22.750Z,237.63
2023-05-10T00:17:22.591Z,236.76
2023-05-10T00:18:22.630Z,240.48
2023-05-10T00:19:22.697Z,239.06
2023-05-10T00:20:22.692Z,238.75
2023-05-10T00:21:22.686Z,239.32
2023-05-10T00:22:22.745Z,238.42
2023-05-10T00:23:22.746Z,239.05
2023-05-10T00:24:22.778Z,240.16
2023-05-10T00:25:22.845Z,239.21
2023-05-10T00:26:22.800Z,240.99
2023-05-10T00:27:22.820Z,239.71
2023-05-10T00:28:22.879Z,241.12
2023-05-10T00:29:22.882Z,241.56
2023-05-10T00:30:22.884Z,240.28
2023-05-10T00:31:22.891Z,241.39
2023-05-10T00:32:22.978Z,243.30
2023-05-10T00:33:22.947Z,242.03
2023-05-10T00:34:22.934Z,241.68
2023-05-10T00:35:22.993Z,240.36
2023-05-10T00:36:23.000Z,241.51
2023-05-10T00:37:23.007Z,243.27
2023-05-10T00:38:23.010Z,243.02
2023-05-10T00:39:23.055Z,242.56
2023-05-10T00:40:23.076Z,244.48
2023-05-10T00:41:23.081Z,243.53
2023-05-10T00:42:23.097Z,244.32
2023-05-10T00:43:23.096Z,243.54
2023-05-10T00:44:23.106Z,242.95
2023-05-10T00:45:23.152Z,244.30
2023-05-10T00:46:23.259Z,243.71
2023-05-10T00:47:23.210Z,244.94
2023-05-10T00:48:23.221Z,244.91
2023-05-10T00:49:23.220Z,245.09
2023-05-10T00:50:23.241Z,245.25
2023-05-10T00:51:23.264Z,244.85
2023-05-10T00:52:23.257Z,244.70
2023-05-10T00:53:23.293Z,245.64
2023-05-10T00:54:23.301Z,245.06
2023-05-10T00:55:23.293Z,245.60
2023-05-10T00:56:23.305Z,246.81
2023-05-10T00:57:23.351Z,247.30
2023-05-10T00:58:23.367Z,247.18
2023-05-10T00:59:23.427Z,247.63
2023-05-10T01:00:23.455Z,246.04
2023-05-10T01:01:23.529Z,246.95
2023-05-10T01:02:23.659Z,247.07
2023-05-10T01:03:23.542Z,246.15
2023-05-10T01:04:23.529Z,247.24
2023-05-10T01:05:23.668Z,248.54
2023-05-10T01:06:23.604Z,247.11
2023-05-10T01:07:23.631Z,248.56
2023-05-10T01:08:23.707Z,247.72
2023-05-10T01:09:23.740Z,248.77
2023-05-10T01:10:23.745Z,247.44
2023-05-10T01:11:23.814Z,248.19
2023-05-10T01:12:23.938Z,248.56
2023-05-10T01:13:23.877Z,248.87
2023-05-10T01:14:23.879Z,247.22
2023-05-10T01:15:23.930Z,249.37
2023-05-10T01:16:23.983Z,248.87
2023-05-10T01:17:23.989Z,247.95
2023-05-10T01:18:23.941Z,248.78
2023-05-10T01:19:23.946Z,247.73
2023-05-10T01:20:24.014Z,248.85
2023-05-10T01:21:24.048Z,248.77
2023-05-10T01:22:24.038Z,248.24
2023-05-10T01:23:24.075Z,249.23
2023-05-10T01:24:24.078Z,247.57
2023-05-10T01:25:24.114Z,248.65
2023-05-10T01:26:24.143Z,245.97
2023-05-10T01:27:24.157Z,249.12
2023-05-10T01:28:24.220Z,249.34
2023-05-10T01:29:24.773Z,248.95
2023-05-10T01:30:24.410Z,250.00
2023-05-10T01:31:24.310Z,249.19
2023-05-10T01:32:24.309Z,248.17
2023-05-10T01:33:24.308Z,249.21
2023-05-10T01:34:24.316Z,247.60
2023-05-10T01:35:24.316Z,248.44
2023-05-10T01:36:24.326Z,249.03
2023-05-10T01:37:24.425Z,248.53
2023-05-10T01:38:24.356Z,249.35
2023-05-10T01:39:24.357Z,249.21
2023-05-10T01:40:24.397Z,249.37
2023-05-10T01:41:24.421Z,248.68
2023-05-10T01:42:24.424Z,247.78
2023-05-10T01:43:24.466Z,247.54
2023-05-10T01:44:24.464Z,248.70
2023-05-10T01:45:24.475Z,249.42
2023-05-10T01:46:24.554Z,249.00
2023-05-10T01:47:24.570Z,248.58
2023-05-10T01:48:24.533Z,248.88
2023-05-10T01:49:24.527Z,247.68
2023-05-10T01:50:24.571Z,249.64
2023-05-10T01:51:24.572Z,248.64
2023-05-10T01:52:24.713Z,248.91
2023-05-10T01:53:24.606Z,248.95
2023-05-10T01:54:24.599Z,250.26
2023-05-10T01:55:24.627Z,249.13
2023-05-10T01:56:24.645Z,248.75
2023-05-10T01:57:24.669Z,248.65
2023-05-10T01:58:24.712Z,249.05
2023-05-10T01:59:24.699Z,249.27
2023-05-10T02:00:24.745Z,248.51
2023-05-10T02:01:24.770Z,247.96
2023-05-10T02:02:24.848Z,249.34
2023-05-10T02:03:24.838Z,249.22
2023-05-10T02:04:24.779Z,248.93
2023-05-10T02:05:24.841Z,247.26
2023-05-10T02:06:24.840Z,249.36
2023-05-10T02:07:24.832Z,248.17
2023-05-10T02:08:24.869Z,248.14
2023-05-10T02:09:24.882Z,247.45
2023-05-10T02:10:24.896Z,249.79
2023-05-10T02:11:24.897Z,248.49
2023-05-10T02:12:24.944Z,250.00
2023-05-10T02:13:25.037Z,249.78
2023-05-10T02:14:24.950Z,248.64
2023-05-10T02:15:24.975Z,248.92
2023-05-10T02:16:25.074Z,248.71
2023-05-10T02:17:25.057Z,248.82
2023-05-10T02:18:25.039Z,248.39
2023-05-10T02:19:25.051Z,247.65
2023-05-10T02:20:25.094Z,246.48
2023-05-10T02:21:25.069Z,248.48
2023-05-10T02:22:25.108Z,249.57
2023-05-10T02:23:25.122Z,248.59
2023-05-10T02:24:25.122Z,249.45
2023-05-10T02:25:25.178Z,249.45
2023-05-10T02:26:25.187Z,249.12
2023-05-10T02:27:25.211Z,249.11
2023-05-10T02:28:25.214Z,247.80
2023-05-10T02:29:25.218Z,248.36
2023-05-10T02:30:25.232Z,249.39
2023-05-10T02:31:25.246Z,248.71
2023-05-10T02:32:25.288Z,248.08
2023-05-10T02:33:25.282Z,248.69
2023-05-10T02:34:25.307Z,247.68
2023-05-10T02:35:25.312Z,246.74
2023-05-10T02:36:25.335Z,246.05
2023-05-10T02:37:25.355Z,246.35
2023-05-10T02:38:25.344Z,246.06
2023-05-10T02:39:25.381Z,245.01
2023-05-10T02:40:27.429Z,246.42
2023-05-10T02:41:25.386Z,246.05
2023-05-10T02:42:25.397Z,246.16
2023-05-10T02:43:25.421Z,247.12
2023-05-10T02:44:25.415Z,247.14
2023-05-10T02:45:25.403Z,244.62
2023-05-10T02:46:25.412Z,243.66
2023-05-10T02:47:25.396Z,245.39
2023-05-10T02:48:25.385Z,244.21
2023-05-10T02:49:25.358Z,242.35
2023-05-10T02:50:25.362Z,242.40
2023-05-10T02:51:25.354Z,243.96
2023-05-10T02:52:25.361Z,243.95
2023-05-10T02:53:25.355Z,245.27
2023-05-10T02:54:25.369Z,245.66
2023-05-10T02:55:25.347Z,246.01
2023-05-10T02:56:25.342Z,243.90
2023-05-10T02:57:25.331Z,243.56
2023-05-10T02:58:25.353Z,243.55
2023-05-10T02:59:25.310Z,243.49
2023-05-10T03:00:25.318Z,244.08
2023-05-10T03:01:25.390Z,243.60
2023-05-10T03:02:25.458Z,243.05
2023-05-10T03:03:25.305Z,244.00
2023-05-10T03:04:25.322Z,243.49
2023-05-10T03:05:25.308Z,243.65
2023-05-10T03:06:25.311Z,242.79
2023-05-10T03:07:25.302Z,243.92
2023-05-10T03:08:25.302Z,243.64
2023-05-10T03:09:25.272Z,244.46
2023-05-10T03:10:25.304Z,244.27
2023-05-10T03:11:25.268Z,244.06
2023-05-10T03:12:25.293Z,243.63
2023-05-10T03:13:25.310Z,244.65
2023-05-10T03:14:25.272Z,244.37
2023-05-10T03:15:25.282Z,242.85
2023-05-10T03:16:25.362Z,243.88
2023-05-10T03:17:25.284Z,242.47
2023-05-10T03:18:25.280Z,242.47
2023-05-10T03:19:25.280Z,243.79
2023-05-10T03:20:25.291Z,242.87
2023-05-10T03:21:25.240Z,243.93
2023-05-10T03:22:25.268Z,245.62
2023-05-10T03:23:25.257Z,244.72
2023-05-10T03:24:25.276Z,243.82
2023-05-10T03:25:25.302Z,244.72
2023-05-10T03:26:25.258Z,244.25
2023-05-10T03:27:25.259Z,244.84
2023-05-10T03:28:25.251Z,245.53
2023-05-10T03:29:25.244Z,246.01
2023-05-10T03:30:25.249Z,243.25
2023-05-10T03:31:25.256Z,243.97
2023-05-10T03:32:25.240Z,242.85
2023-05-10T03:33:25.227Z,245.58
2023-05-10T03:34:25.241Z,244.28
2023-05-10T03:35:25.224Z,244.46
2023-05-10T03:36:25.216Z,242.95
2023-05-10T03:37:25.239Z,246.50
2023-05-10T03:38:25.200Z,246.45
2023-05-10T03:39:25.159Z,246.73
2023-05-10T03:40:25.194Z,246.58
2023-05-10T03:41:25.144Z,245.23
2023-05-10T03:42:25.161Z,244.28
2023-05-10T03:43:25.165Z,243.76
2023-05-10T03:44:25.130Z,243.14
2023-05-10T03:45:25.124Z,243.95
2023-05-10T03:46:25.676Z,244.85
2023-05-10T03:47:25.333Z,245.72
2023-05-10T03:48:25.124Z,244.95
2023-05-10T03:49:25.110Z,244.79
2023-05-10T03:50:25.155Z,243.98
2023-05-10T03:51:25.122Z,244.89
2023-05-10T03:52:25.124Z,243.80
2023-05-10T03:53:25.070Z,244.90
2023-05-10T03:54:25.116Z,243.26
2023-05-10T03:55:25.086Z,243.06
2023-05-10T03:56:25.079Z,244.03
2023-05-10T03:57:25.072Z,244.33
2023-05-10T03:58:25.099Z,241.25
2023-05-10T03:59:25.081Z,242.02
2023-05-10T04:00:25.052Z,243.06
2023-05-10T04:01:25.080Z,242.31
2023-05-10T04:02:25.224Z,243.33
2023-05-10T04:03:25.114Z,242.00
2023-05-10T04:04:25.027Z,241.84
2023-05-10T04:05:25.030Z,241.49
2023-05-10T04:06:25.133Z,242.68
2023-05-10T04:07:25.019Z,243.71
2023-05-10T04:08:25.028Z,242.34
2023-05-10T04:09:25.036Z,243.47
2023-05-10T04:10:25.033Z,244.00
2023-05-10T04:11:25.088Z,243.80
2023-05-10T04:12:25.078Z,241.23
2023-05-10T04:13:25.201Z,243.08
2023-05-10T04:14:25.128Z,243.57
2023-05-10T04:15:25.115Z,241.89
2023-05-10T04:16:25.182Z,242.00
2023-05-10T04:17:25.201Z,239.97
2023-05-10T04:18:25.352Z,241.29
2023-05-10T04:19:25.545Z,241.47
2023-05-10T04:20:25.421Z,242.59
2023-05-10T04:21:25.262Z,241.96
2023-05-10T04:22:25.293Z,242.01
2023-05-10T04:23:25.354Z,240.92
2023-05-10T04:24:25.371Z,242.27
2023-05-10T04:25:25.407Z,240.31
2023-05-10T04:26:25.427Z,243.25
2023-05-10T04:27:25.436Z,242.19
2023-05-10T04:28:25.459Z,241.99
2023-05-10T04:29:25.467Z,242.38
2023-05-10T04:30:25.493Z,241.83
2023-05-10T04:31:25.712Z,240.48
2023-05-10T04:32:25.585Z,241.36
2023-05-10T04:33:25.605Z,240.57
2023-05-10T04:34:25.584Z,240.49
2023-05-10T04:35:25.582Z,240.71
2023-05-10T04:36:25.598Z,240.63
2023-05-10T04:37:25.628Z,239.88
2023-05-10T04:38:25.640Z,239.08
2023-05-10T04:39:25.701Z,237.18
2023-05-10T04:40:25.680Z,239.03
2023-05-10T04:41:25.698Z,237.65
2023-05-10T04:42:25.705Z,236.99
2023-05-10T04:43:25.714Z,236.53
2023-05-10T04:44:25.750Z,234.80
2023-05-10T04:45:25.794Z,237.40
2023-05-10T04:46:25.880Z,236.00
2023-05-10T04:47:25.898Z,235.53
2023-05-10T04:48:25.870Z,236.54
2023-05-10T04:49:25.856Z,237.16
2023-05-10T04:50:25.899Z,238.28
2023-05-10T04:51:25.901Z,238.09
2023-05-10T04:52:25.923Z,237.30
2023-05-10T04:53:25.953Z,238.27
2023-05-10T04:54:25.952Z,239.44
2023-05-10T04:55:25.966Z,237.71
2023-05-10T04:56:25.985Z,238.57
2023-05-10T04:57:26.011Z,237.65
2023-05-10T04:58:26.048Z,238.37
2023-05-10T04:59:26.031Z,238.04
2023-05-10T05:00:33.072Z,238.39
2023-05-10T05:01:26.144Z,238.56
2023-05-10T05:02:26.119Z,238.75
2023-05-10T05:03:26.119Z,239.83
2023-05-10T05:04:26.042Z,240.99
2023-05-10T05:05:26.049Z,242.51
2023-05-10T05:06:26.073Z,243.32
2023-05-10T05:07:25.989Z,243.30
2023-05-10T05:08:25.983Z,242.88
2023-05-10T05:09:25.987Z,243.02
2023-05-10T05:10:25.976Z,241.56
2023-05-10T05:11:26.023Z,243.04
2023-05-10T05:12:25.996Z,240.12
2023-05-10T05:13:26.090Z,240.01
2023-05-10T05:14:25.937Z,239.80
2023-05-10T05:15:25.935Z,241.26
2023-05-10T05:16:26.004Z,241.04
2023-05-10T05:17:25.943Z,242.87
2023-05-10T05:18:25.921Z,241.40
2023-05-10T05:19:25.902Z,241.22
2023-05-10T05:20:25.894Z,235.94
2023-05-10T05:21:25.911Z,219.18
2023-05-10T05:22:25.909Z,205.28
2023-05-10T05:23:25.923Z,201.24
2023-05-10T05:24:25.900Z,202.48
2023-05-10T05:25:25.853Z,200.76
2023-05-10T05:26:25.886Z,199.68
2023-05-10T05:27:25.867Z,197.76
2023-05-10T05:28:25.878Z,199.79
2023-05-10T05:29:25.893Z,206.07
2023-05-10T05:30:25.948Z,214.62
2023-05-10T05:31:25.962Z,211.97
2023-05-10T05:32:25.978Z,210.37
2023-05-10T05:33:25.963Z,205.87
2023-05-10T05:34:26.420Z,207.25
2023-05-10T05:35:25.980Z,210.08
2023-05-10T05:36:26.024Z,212.17
2023-05-10T05:37:26.012Z,220.27
2023-05-10T05:38:26.027Z,221.19
2023-05-10T05:39:26.487Z,225.85
2023-05-10T05:40:26.080Z,235.00
2023-05-10T05:41:26.082Z,236.74
2023-05-10T05:42:26.204Z,235.20
2023-05-10T05:43:26.100Z,238.04
2023-05-10T05:44:26.418Z,247.68
2023-05-10T05:45:33.234Z,247.30
2023-05-10T05:46:26.217Z,247.42
2023-05-10T05:47:26.243Z,248.02
2023-05-10T05:48:26.216Z,248.63
2023-05-10T05:49:26.185Z,251.74
2023-05-10T05:50:26.223Z,256.03
2023-05-10T05:51:26.228Z,249.80
2023-05-10T05:52:26.212Z,249.84
2023-05-10T05:53:26.232Z,250.00
2023-05-10T05:54:26.443Z,246.92
2023-05-10T05:55:26.261Z,247.31
2023-05-10T05:56:26.229Z,248.20
2023-05-10T05:57:26.261Z,248.23
2023-05-10T05:58:26.254Z,250.00
2023-05-10T05:59:26.433Z,248.29
2023-05-10T06:00:26.391Z,240.65
2023-05-10T06:01:26.251Z,242.45
2023-05-10T06:02:26.337Z,233.44
2023-05-10T06:03:26.399Z,227.06
2023-05-10T06:04:26.388Z,229.49
2023-05-10T06:05:26.236Z,231.76
2023-05-10T06:06:26.273Z,240.50
2023-05-10T06:07:26.297Z,247.58
2023-05-10T06:08:26.259Z,250.00
2023-05-10T06:09:26.453Z,249.93
2023-05-10T06:10:26.241Z,250.00
2023-05-10T06:11:26.253Z,249.13
2023-05-10T06:12:26.277Z,250.00
2023-05-10T06:13:26.302Z,250.00
2023-05-10T06:14:26.208Z,250.00
2023-05-10T06:15:26.234Z,249.08
2023-05-10T06:16:26.285Z,250.00
2023-05-10T06:17:26.246Z,249.97
2023-05-10T06:18:26.184Z,249.58
2023-05-10T06:19:26.217Z,249.95
2023-05-10T06:20:26.215Z,249.92
2023-05-10T06:21:26.192Z,250.00
2023-05-10T06:22:26.186Z,249.62
2023-05-10T06:23:26.165Z,249.61
2023-05-10T06:24:26.174Z,249.01
2023-05-10T06:25:26.210Z,249.57
2023-05-10T06:26:26.237Z,249.56
2023-05-10T06:27:26.277Z,250.00
2023-05-10T06:28:26.258Z,249.61
2023-05-10T06:29:26.311Z,249.38
2023-05-10T06:30:26.397Z,249.64
2023-05-10T06:31:26.417Z,250.00
2023-05-10T06:32:26.472Z,249.84
2023-05-10T06:33:26.469Z,249.49
2023-05-10T06:34:26.555Z,249.47
2023-05-10T06:35:26.552Z,249.60
2023-05-10T06:36:26.597Z,248.90
2023-05-10T06:37:26.635Z,239.99
2023-05-10T06:38:26.643Z,220.69
2023-05-10T06:39:26.649Z,212.52
2023-05-10T06:40:26.733Z,202.75
2023-05-10T06:41:26.709Z,205.33
2023-05-10T06:42:26.707Z,214.70
2023-05-10T06:43:26.742Z,222.07
2023-05-10T06:44:26.736Z,227.08
2023-05-10T06:45:26.757Z,230.98
2023-05-10T06:46:26.854Z,235.40
2023-05-10T06:47:26.914Z,239.53
2023-05-10T06:48:27.120Z,240.10
2023-05-10T06:49:26.831Z,240.91
2023-05-10T06:50:26.886Z,243.15
2023-05-10T06:51:26.941Z,242.22
2023-05-10T06:52:26.985Z,242.91
2023-05-10T06:53:27.004Z,243.12
2023-05-10T06:54:27.098Z,244.36
2023-05-10T06:55:27.125Z,246.59
2023-05-10T06:56:27.146Z,246.20
2023-05-10T06:57:31.757Z,247.91
2023-05-10T06:58:28.170Z,248.02
2023-05-10T06:59:27.184Z,248.14
2023-05-10T07:00:27.194Z,247.83
2023-05-10T07:01:27.151Z,248.45
2023-05-10T07:02:27.243Z,249.24
2023-05-10T07:03:27.106Z,250.00
2023-05-10T07:04:27.376Z,249.04
2023-05-10T07:05:27.096Z,249.18
2023-05-10T07:06:33.503Z,247.95
2023-05-10T07:07:28.061Z,248.07
2023-05-10T07:08:27.045Z,248.36
2023-05-10T07:09:27.018Z,248.31
2023-05-10T07:10:27.382Z,248.53
2023-05-10T07:11:26.958Z,250.65
2023-05-10T07:12:27.038Z,249.44
2023-05-10T07:13:26.964Z,237.13
2023-05-10T07:14:26.961Z,228.27
2023-05-10T07:15:26.926Z,225.50
2023-05-10T07:16:26.931Z,216.20
2023-05-10T07:17:27.039Z,210.86
2023-05-10T07:18:26.990Z,207.12
2023-05-10T07:19:26.884Z,202.81
2023-05-10T07:20:27.053Z,201.12
2023-05-10T07:21:26.869Z,199.28
2023-05-10T07:22:26.880Z,195.20
2023-05-10T07:23:26.884Z,194.29
2023-05-10T07:24:26.914Z,191.95
2023-05-10T07:25:26.976Z,186.10
2023-05-10T07:26:26.986Z,186.33
2023-05-10T07:27:27.076Z,185.46
2023-05-10T07:28:27.091Z,182.43
2023-05-10T07:29:27.166Z,181.72
2023-05-10T07:30:27.240Z,180.36
2023-05-10T07:31:27.292Z,178.36
2023-05-10T07:32:27.366Z,177.16
2023-05-10T07:33:27.321Z,174.14
2023-05-10T07:34:27.380Z,169.40
2023-05-10T07:35:27.456Z,170.75
2023-05-10T07:36:27.519Z,172.68
2023-05-10T07:37:27.547Z,173.64
2023-05-10T07:38:27.557Z,173.36
2023-05-10T07:39:28.368Z,173.74
2023-05-10T07:40:27.599Z,169.29
2023-05-10T07:41:27.665Z,166.53
2023-05-10T07:42:28.495Z,167.40
2023-05-10T07:43:27.710Z,168.07
2023-05-10T07:44:27.773Z,166.78
2023-05-10T07:45:27.861Z,165.78
2023-05-10T07:46:27.827Z,165.60
2023-05-10T07:47:27.891Z,173.47
2023-05-10T07:48:27.829Z,170.72
2023-05-10T07:49:27.848Z,177.29
2023-05-10T07:50:27.974Z,180.79
2023-05-10T07:51:28.023Z,182.89
2023-05-10T07:52:28.086Z,186.60
2023-05-10T07:53:28.136Z,186.77
2023-05-10T07:54:28.200Z,189.99
2023-05-10T07:55:28.268Z,191.10
2023-05-10T07:56:28.317Z,193.22
2023-05-10T07:57:28.374Z,193.80
2023-05-10T07:58:28.422Z,194.97
2023-05-10T07:59:28.440Z,195.11
2023-05-10T08:00:28.999Z,195.39
2023-05-10T08:01:28.526Z,194.82
2023-05-10T08:02:28.688Z,195.97
2023-05-10T08:03:28.736Z,197.56
2023-05-10T08:04:28.666Z,196.12
2023-05-10T08:05:28.754Z,195.42
2023-05-10T08:06:28.756Z,196.76
2023-05-10T08:07:28.816Z,195.99
2023-05-10T08:08:28.856Z,196.43
2023-05-10T08:09:28.914Z,195.73
2023-05-10T08:10:28.995Z,195.95
2023-05-10T08:11:28.939Z,195.74
2023-05-10T08:12:28.984Z,195.60
2023-05-10T08:13:29.038Z,195.18
2023-05-10T08:14:29.052Z,196.99
2023-05-10T08:15:29.053Z,196.53
2023-05-10T08:16:29.097Z,198.15
2023-05-10T08:17:29.167Z,197.24
2023-05-10T08:18:29.202Z,196.82
2023-05-10T08:19:29.167Z,197.74
2023-05-10T08:20:29.212Z,198.73
2023-05-10T08:21:29.231Z,197.69
2023-05-10T08:22:29.219Z,199.10
2023-05-10T08:23:29.252Z,197.59
2023-05-10T08:24:29.378Z,198.41
2023-05-10T08:25:29.310Z,198.86
2023-05-10T08:26:29.373Z,198.57
2023-05-10T08:27:29.337Z,198.89
2023-05-10T08:28:29.360Z,198.12
2023-05-10T08:29:32.765Z,198.53
2023-05-10T08:30:30.495Z,198.53
2023-05-10T08:31:29.401Z,195.91
2023-05-10T08:32:29.400Z,194.46
2023-05-10T08:33:29.379Z,196.50
2023-05-10T08:34:29.346Z,193.58
2023-05-10T08:35:29.521Z,194.52
2023-05-10T08:36:29.360Z,192.19
2023-05-10T08:37:29.353Z,193.90
2023-05-10T08:38:29.388Z,192.31
2023-05-10T08:39:30.711Z,191.57
2023-05-10T08:40:29.349Z,191.47
2023-05-10T08:41:29.418Z,191.79
2023-05-10T08:42:29.326Z,192.21
2023-05-10T08:43:29.359Z,193.82
2023-05-10T08:44:29.346Z,190.79
2023-05-10T08:45:29.364Z,193.80
2023-05-10T08:46:29.388Z,193.01
2023-05-10T08:47:29.403Z,191.96
2023-05-10T08:48:29.352Z,189.48
2023-05-10T08:49:29.345Z,188.24
2023-05-10T08:50:29.585Z,187.83
2023-05-10T08:51:29.420Z,189.61
2023-05-10T08:52:29.414Z,188.72
2023-05-10T08:53:29.423Z,186.95
2023-05-10T08:54:29.453Z,187.38
2023-05-10T08:55:29.491Z,189.39
2023-05-10T08:56:29.499Z,191.46
2023-05-10T08:57:29.536Z,188.84
2023-05-10T08:58:29.557Z,188.74
2023-05-10T08:59:29.578Z,187.39
2023-05-10T09:00:29.592Z,188.26
2023-05-10T09:01:29.750Z,187.38
2023-05-10T09:02:29.620Z,187.94
2023-05-10T09:03:29.652Z,187.49
2023-05-10T09:04:29.743Z,187.02
2023-05-10T09:05:29.733Z,187.58
2023-05-10T09:06:29.741Z,187.74
2023-05-10T09:07:29.804Z,187.47
2023-05-10T09:08:29.747Z,187.51
2023-05-10T09:09:29.746Z,187.12
2023-05-10T09:10:29.851Z,186.65
2023-05-10T09:11:29.803Z,185.27
2023-05-10T09:12:29.824Z,184.16
2023-05-10T09:13:29.828Z,184.80
2023-05-10T09:14:29.863Z,184.84
2023-05-10T09:15:29.901Z,183.95
2023-05-10T09:16:29.981Z,181.25
2023-05-10T09:17:29.998Z,181.84
2023-05-10T09:18:29.985Z,181.59
2023-05-10T09:19:29.950Z,180.79
2023-05-10T09:20:30.072Z,178.31
2023-05-10T09:21:29.931Z,178.70
2023-05-10T09:22:29.985Z,179.00
2023-05-10T09:23:30.010Z,180.22
2023-05-10T09:24:30.016Z,178.45
2023-05-10T09:25:30.036Z,177.53
2023-05-10T09:26:30.522Z,179.20
2023-05-10T09:27:30.082Z,179.06
2023-05-10T09:28:30.126Z,178.64
2023-05-10T09:29:30.155Z,179.62
2023-05-10T09:30:30.198Z,179.79
2023-05-10T09:31:30.682Z,180.32
2023-05-10T09:32:30.184Z,178.69
2023-05-10T09:33:30.196Z,179.53
2023-05-10T09:34:30.211Z,176.13
2023-05-10T09:35:30.276Z,161.28
2023-05-10T09:36:31.062Z,149.54
2023-05-10T09:37:30.284Z,140.72
2023-05-10T09:38:30.339Z,135.30
2023-05-10T09:39:30.378Z,137.77
2023-05-10T09:40:30.440Z,135.79
2023-05-10T09:41:30.547Z,136.22
2023-05-10T09:42:30.512Z,129.58
2023-05-10T09:43:30.499Z,131.90
2023-05-10T09:44:30.546Z,137.03
2023-05-10T09:45:30.594Z,154.02
2023-05-10T09:46:30.673Z,173.04
2023-05-10T09:47:30.704Z,181.04
2023-05-10T09:48:30.707Z,192.98
2023-05-10T09:49:30.714Z,201.75
2023-05-10T09:50:30.780Z,206.13
2023-05-10T09:51:30.841Z,212.78
2023-05-10T09:52:30.839Z,218.17
2023-05-10T09:53:30.920Z,223.68
2023-05-10T09:54:31.039Z,226.28
2023-05-10T09:55:30.930Z,228.86
2023-05-10T09:56:30.946Z,231.94
2023-05-10T09:57:31.908Z,237.08
2023-05-10T09:58:30.970Z,239.05
2023-05-10T09:59:30.983Z,241.41
2023-05-10T10:00:31.127Z,243.00
2023-05-10T10:01:31.106Z,244.06
2023-05-10T10:02:31.103Z,244.84
2023-05-10T10:03:31.115Z,246.92
2023-05-10T10:04:31.269Z,247.91
2023-05-10T10:05:31.204Z,248.93
2023-05-10T10:06:31.192Z,249.43
2023-05-10T10:07:31.245Z,249.69
2023-05-10T10:08:31.279Z,250.00
2023-05-10T10:09:31.340Z,249.59
2023-05-10T10:10:31.320Z,249.51
2023-05-10T10:11:31.535Z,249.31
2023-05-10T10:12:31.390Z,248.60
2023-05-10T10:13:31.426Z,248.60
2023-05-10T10:14:31.484Z,250.00
2023-05-10T10:15:31.520Z,250.00
2023-05-10T10:16:32.149Z,250.24
2023-05-10T10:17:31.598Z,249.39
2023-05-10T10:18:31.711Z,246.55
2023-05-10T10:19:31.651Z,248.87
2023-05-10T10:20:31.670Z,249.89
2023-05-10T10:21:31.700Z,250.00
2023-05-10T10:22:31.771Z,249.40
2023-05-10T10:23:31.801Z,249.44
2023-05-10T10:24:31.814Z,249.21
2023-05-10T10:25:31.838Z,249.46
2023-05-10T10:26:32.069Z,250.00
2023-05-10T10:27:31.910Z,249.01
2023-05-10T10:28:31.935Z,248.38
2023-05-10T10:29:31.938Z,247.52
2023-05-10T10:30:31.944Z,246.70
2023-05-10T10:31:32.048Z,248.72
2023-05-10T10:32:32.056Z,238.20
2023-05-10T10:33:32.138Z,234.70
2023-05-10T10:34:32.070Z,235.71
2023-05-10T10:35:32.074Z,224.60
2023-05-10T10:36:32.994Z,200.54
2023-05-10T10:37:32.144Z,178.19
2023-05-10T10:38:32.135Z,160.37
2023-05-10T10:39:32.182Z,149.83
2023-05-10T10:40:34.628Z,143.02
2023-05-10T10:41:32.529Z,133.34
2023-05-10T10:42:32.248Z,124.01
2023-05-10T10:43:32.197Z,122.64
2023-05-10T10:44:32.210Z,123.79
2023-05-10T10:45:32.259Z,124.28
2023-05-10T10:46:32.657Z,122.12
2023-05-10T10:47:32.325Z,119.49
2023-05-10T10:48:32.267Z,115.37
2023-05-10T10:49:32.220Z,111.16
2023-05-10T10:50:32.241Z,107.15
2023-05-10T10:51:32.400Z,103.87
2023-05-10T10:52:33.065Z,102.49
2023-05-10T10:53:32.377Z,100.53
2023-05-10T10:54:32.258Z,96.94
2023-05-10T10:55:32.244Z,96.00
2023-05-10T10:56:32.334Z,95.32
2023-05-10T10:57:32.254Z,95.18
2023-05-10T10:58:32.297Z,93.21
2023-05-10T10:59:32.299Z,91.76
2023-05-10T11:00:32.369Z,90.40
2023-05-10T11:01:32.343Z,88.94
2023-05-10T11:02:32.345Z,90.11
2023-05-10T11:03:32.297Z,90.25
2023-05-10T11:04:32.344Z,89.86
2023-05-10T11:05:32.347Z,90.59
2023-05-10T11:06:32.320Z,88.18
2023-05-10T11:07:32.571Z,88.43
2023-05-10T11:08:32.339Z,88.52
2023-05-10T11:09:32.375Z,88.40
2023-05-10T11:10:32.350Z,83.73
2023-05-10T11:11:32.341Z,79.10
2023-05-10T11:12:32.362Z,76.95
2023-05-10T11:13:32.457Z,78.34
2023-05-10T11:14:32.450Z,76.61
2023-05-10T11:15:32.392Z,71.40
2023-05-10T11:16:32.455Z,69.98
2023-05-10T11:17:32.534Z,70.46
2023-05-10T11:18:33.201Z,71.12
2023-05-10T11:19:32.436Z,73.29
2023-05-10T11:20:32.439Z,75.86
2023-05-10T11:21:32.476Z,76.07
2023-05-10T11:22:32.572Z,75.00
2023-05-10T11:23:32.446Z,69.70
2023-05-10T11:24:32.475Z,67.20
2023-05-10T11:25:32.482Z,68.11
2023-05-10T11:26:32.480Z,66.58
2023-05-10T11:27:32.577Z,75.95
2023-05-10T11:28:32.513Z,73.28
2023-05-10T11:29:32.609Z,81.60
2023-05-10T11:30:33.003Z,92.29
2023-05-10T11:31:32.523Z,93.14
2023-05-10T11:32:32.650Z,100.32
2023-05-10T11:33:32.555Z,103.06
2023-05-10T11:34:32.545Z,102.35
2023-05-10T11:35:32.611Z,102.09
2023-05-10T11:36:32.626Z,103.23
2023-05-10T11:37:33.091Z,103.69
2023-05-10T11:38:32.633Z,103.91
2023-05-10T11:39:32.667Z,105.43
2023-05-10T11:40:32.660Z,106.01
2023-05-10T11:41:32.707Z,105.67
2023-05-10T11:42:32.668Z,108.03
2023-05-10T11:43:32.666Z,109.58
2023-05-10T11:44:32.761Z,107.35
2023-05-10T11:45:32.742Z,113.21
2023-05-10T11:46:32.802Z,117.34
2023-05-10T11:47:32.750Z,118.79
2023-05-10T11:48:32.707Z,122.94
2023-05-10T11:49:32.760Z,121.94
2023-05-10T11:50:32.847Z,116.10
2023-05-10T11:51:32.875Z,118.65
2023-05-10T11:52:32.935Z,117.71
2023-05-10T11:53:32.983Z,117.53
2023-05-10T11:54:33.014Z,118.91
2023-05-10T11:55:33.119Z,111.29
2023-05-10T11:56:33.155Z,109.11
2023-05-10T11:57:33.173Z,98.84
2023-05-10T11:58:33.214Z,92.21
2023-05-10T11:59:33.270Z,87.62
2023-05-10T12:00:33.297Z,86.18
2023-05-10T12:01:33.372Z,87.17
2023-05-10T12:02:33.533Z,82.45
2023-05-10T12:03:33.584Z,86.06
2023-05-10T12:04:33.566Z,94.02
2023-05-10T12:05:33.533Z,88.41
2023-05-10T12:06:33.690Z,86.35
2023-05-10T12:07:33.694Z,93.98
2023-05-10T12:08:33.699Z,99.01
2023-05-10T12:09:43.307Z,102.26
2023-05-10T12:10:34.748Z,102.39
2023-05-10T12:11:33.772Z,102.83
2023-05-10T12:12:33.804Z,103.67
2023-05-10T12:13:33.795Z,105.10
2023-05-10T12:14:33.771Z,106.86
2023-05-10T12:15:33.786Z,104.95
2023-05-10T12:16:33.799Z,106.78
2023-05-10T12:17:33.856Z,108.09
2023-05-10T12:18:33.875Z,108.63
2023-05-10T12:19:33.817Z,110.04
2023-05-10T12:20:33.815Z,109.68
2023-05-10T12:21:33.803Z,122.01
2023-05-10T12:22:33.835Z,129.32
2023-05-10T12:23:33.847Z,128.42
2023-05-10T12:24:33.897Z,132.54
2023-05-10T12:25:33.809Z,138.99
2023-05-10T12:26:33.843Z,144.31
2023-05-10T12:27:33.901Z,148.09
2023-05-10T12:28:33.940Z,150.86
2023-05-10T12:29:33.978Z,154.85
2023-05-10T12:30:34.039Z,155.82